Terminal Aerodrome Forecast
Issued by NWS Boise, ID

Home | Current Version | Previous Version | Text Only | Print | Product List | Glossary On
Versions: 1 2 3 4 5 6 7 8 9 10 11 12 13 14 15 16 17 18 19 20 21 22 23 24 25 26 27 28 29 30 31 32 33 34 35 36 37 38 39
000
FTUS45 KBOI 281544 AAB
TAFBOI
TAF AMD
KBOI 281544Z 2816/0112 VRB05KT 1SM -SN BR BKN025 OVC035
     FM281630 12007KT P6SM VCSH BKN040
     FM281700 32015G22KT P6SM SCT040
     FM010300 VRB05KT P6SM SCT060=

USA.gov is the U.S. government's official web portal to all federal, state and local government web resources and services.